createdAt,value
2023-01-09T00:02:40.830Z,60.30
2023-01-09T00:05:23.951Z,57.50
2023-01-09T00:08:06.871Z,57.90
2023-01-09T00:10:50.582Z,56.30
2023-01-09T00:13:33.612Z,53.00
2023-01-09T00:16:16.915Z,58.70
2023-01-09T00:19:00.973Z,54.90
2023-01-09T00:21:43.789Z,56.30
2023-01-09T00:24:26.578Z,55.00
2023-01-09T00:29:52.200Z,50.30
2023-01-09T00:32:35.017Z,55.50
2023-01-09T00:38:03.644Z,57.60
2023-01-09T00:40:46.447Z,55.00
2023-01-09T00:46:18.289Z,53.60
2023-01-09T00:49:03.151Z,55.60
2023-01-09T00:51:46.452Z,53.40
2023-01-09T00:54:30.785Z,54.00
2023-01-09T00:57:14.403Z,50.90
2023-01-09T00:59:58.978Z,55.30
2023-01-09T01:02:41.866Z,55.30
2023-01-09T01:05:43.711Z,54.50
2023-01-09T01:08:26.539Z,55.40
2023-01-09T01:13:53.246Z,56.30
2023-01-09T01:16:36.179Z,57.30
2023-01-09T01:19:18.976Z,54.20
2023-01-09T01:27:29.061Z,57.40
2023-01-09T01:30:14.617Z,59.20
2023-01-09T01:32:57.428Z,54.20
2023-01-09T01:38:22.844Z,58.30
2023-01-09T01:43:58.411Z,56.80
2023-01-09T01:46:41.183Z,56.90
2023-01-09T01:49:24.016Z,57.70
2023-01-09T01:54:50.237Z,55.80
2023-01-09T02:00:50.572Z,55.40
2023-01-09T02:04:44.474Z,59.50
2023-01-09T02:08:38.321Z,57.40
2023-01-09T02:12:32.216Z,58.90
2023-01-09T02:16:44.870Z,60.00
2023-01-09T02:20:34.590Z,59.10
2023-01-09T02:24:48.378Z,60.40
2023-01-09T02:28:51.908Z,57.00
2023-01-09T02:32:47.299Z,55.30
2023-01-09T02:36:50.896Z,57.30
2023-01-09T02:40:59.025Z,58.40
2023-01-09T02:45:12.195Z,58.60
2023-01-09T02:48:58.788Z,62.20
2023-01-09T02:52:22.872Z,59.20
2023-01-09T02:55:57.314Z,55.30
2023-01-09T02:59:52.013Z,57.50
2023-01-09T03:03:37.828Z,62.20
2023-01-09T03:07:21.956Z,54.60
2023-01-09T03:11:14.945Z,59.10
2023-01-09T03:14:55.047Z,59.00
2023-01-09T03:18:59.034Z,61.70
2023-01-09T03:22:35.329Z,60.80
2023-01-09T03:26:21.468Z,64.40
2023-01-09T03:29:53.140Z,61.60
2023-01-09T03:33:32.834Z,58.70
2023-01-09T03:37:29.690Z,67.20
2023-01-09T03:41:33.515Z,58.60
2023-01-09T03:45:00.242Z,60.40
2023-01-09T03:48:44.239Z,55.40
2023-01-09T03:52:28.977Z,60.20
2023-01-09T03:56:32.791Z,67.20
2023-01-09T04:00:29.421Z,64.20
2023-01-09T04:04:15.082Z,60.20
2023-01-09T04:07:52.396Z,59.00
2023-01-09T04:11:56.368Z,61.10
2023-01-09T04:16:00.333Z,56.50
2023-01-09T04:19:27.044Z,60.60
2023-01-09T04:23:13.312Z,55.90
2023-01-09T04:27:17.186Z,53.00
2023-01-09T04:31:04.101Z,56.90
2023-01-09T04:34:50.409Z,55.00
2023-01-09T04:38:37.646Z,54.60
2023-01-09T04:42:09.121Z,55.90
2023-01-09T04:45:56.045Z,53.90
2023-01-09T04:50:00.045Z,52.10
2023-01-09T04:53:52.199Z,54.10
2023-01-09T04:57:48.911Z,56.80
2023-01-09T05:01:52.933Z,51.30
2023-01-09T05:05:30.972Z,51.60
2023-01-09T05:09:34.846Z,56.90
2023-01-09T05:13:27.505Z,54.00
2023-01-09T05:17:19.080Z,57.20
2023-01-09T05:20:25.057Z,58.70
2023-01-09T05:23:48.796Z,62.50
2023-01-09T05:27:36.408Z,59.90
2023-01-09T05:31:33.118Z,58.60
2023-01-09T05:34:42.052Z,67.20
2023-01-09T05:38:01.912Z,61.90
2023-01-09T05:41:48.433Z,62.60
2023-01-09T05:45:22.393Z,64.30
2023-01-09T05:48:56.283Z,62.00
2023-01-09T05:52:31.243Z,59.50
2023-01-09T05:59:15.926Z,68.20
2023-01-09T06:02:46.567Z,65.10
2023-01-09T06:06:28.365Z,61.80
2023-01-09T06:09:54.701Z,61.40
2023-01-09T06:13:26.879Z,65.60
2023-01-09T06:16:45.038Z,60.50
2023-01-09T06:20:22.022Z,65.20
2023-01-09T06:23:38.627Z,72.10
2023-01-09T06:27:13.454Z,74.90
2023-01-09T06:31:17.467Z,78.50
2023-01-09T06:34:47.023Z,74.60
2023-01-09T06:38:33.992Z,80.50
2023-01-09T06:46:05.827Z,68.10
2023-01-09T06:50:09.865Z,75.20
2023-01-09T06:53:57.400Z,77.40
2023-01-09T06:57:41.220Z,77.00
2023-01-09T07:01:21.416Z,78.40
2023-01-09T07:05:15.565Z,82.60
2023-01-09T07:09:00.619Z,79.20
2023-01-09T07:12:22.117Z,82.00
2023-01-09T07:16:25.952Z,87.90
2023-01-09T07:19:43.377Z,80.60
2023-01-09T07:23:16.875Z,82.40
2023-01-09T07:27:20.708Z,94.60
2023-01-09T07:30:34.315Z,93.10
2023-01-09T07:33:44.777Z,94.00
2023-01-09T07:37:11.088Z,89.90
2023-01-09T07:40:53.768Z,91.90
2023-01-09T07:44:37.762Z,99.20
2023-01-09T07:51:16.964Z,102.00
2023-01-09T07:54:43.377Z,95.90
2023-01-09T07:58:16.003Z,92.60
2023-01-09T08:01:25.543Z,96.70
2023-01-09T08:04:53.168Z,101.10
2023-01-09T08:08:22.752Z,94.70
2023-01-09T08:11:57.719Z,99.40
2023-01-09T08:14:56.312Z,105.30
2023-01-09T08:18:22.844Z,108.60
2023-01-09T08:21:46.681Z,109.80
2023-01-09T08:25:23.386Z,110.20
2023-01-09T08:28:53.735Z,114.00
2023-01-09T08:32:10.081Z,108.40
2023-01-09T08:35:30.417Z,101.20
2023-01-09T08:39:14.074Z,101.60
2023-01-09T08:43:17.755Z,105.40
2023-01-09T08:47:11.282Z,108.80
2023-01-09T08:50:17.280Z,113.00
2023-01-09T08:53:54.962Z,104.50
2023-01-09T08:57:57.693Z,109.60
2023-01-09T09:01:26.137Z,105.10
2023-01-09T09:05:00.123Z,106.30
2023-01-09T09:08:33.785Z,101.20
2023-01-09T09:11:57.457Z,113.50
2023-01-09T09:15:13.715Z,114.60
2023-01-09T09:19:17.621Z,106.40
2023-01-09T09:23:11.732Z,104.20
2023-01-09T09:26:49.358Z,97.30
2023-01-09T09:30:03.928Z,92.70
2023-01-09T09:33:36.640Z,106.40
2023-01-09T09:37:09.532Z,106.00
2023-01-09T09:40:30.827Z,104.80
2023-01-09T09:45:05.453Z,105.40
2023-01-09T09:48:30.667Z,101.70
2023-01-09T09:51:40.584Z,105.20
2023-01-09T09:55:05.222Z,116.90
2023-01-09T09:58:41.899Z,110.40
2023-01-09T10:01:40.853Z,103.40
2023-01-09T10:04:51.535Z,99.50
2023-01-09T10:08:24.504Z,99.50
2023-01-09T10:12:34.246Z,107.00
2023-01-09T10:16:01.093Z,100.50
2023-01-09T10:19:42.205Z,98.20
2023-01-09T10:23:12.188Z,100.80
2023-01-09T10:26:41.057Z,101.90
2023-01-09T10:29:59.393Z,100.90
2023-01-09T10:33:52.159Z,105.50
2023-01-09T10:37:26.341Z,99.40
2023-01-09T10:41:09.771Z,103.00
2023-01-09T10:44:41.694Z,108.80
2023-01-09T10:48:11.380Z,109.20
2023-01-09T10:51:43.791Z,110.20
2023-01-09T10:55:21.372Z,112.70
2023-01-09T10:58:59.573Z,101.90
2023-01-09T11:02:17.192Z,104.20
2023-01-09T11:05:51.619Z,99.90
2023-01-09T11:09:40.979Z,110.70
2023-01-09T11:13:25.294Z,105.50
2023-01-09T11:16:53.103Z,100.90
2023-01-09T11:20:30.491Z,102.50
2023-01-09T11:23:40.185Z,92.50
2023-01-09T11:27:11.099Z,101.60
2023-01-09T11:31:06.486Z,96.90
2023-01-09T11:34:44.892Z,98.70
2023-01-09T11:38:11.691Z,99.40
2023-01-09T11:41:12.045Z,95.80
2023-01-09T11:44:26.774Z,108.00
2023-01-09T11:47:54.118Z,102.70
2023-01-09T11:51:05.739Z,101.20
2023-01-09T11:54:34.650Z,100.90
2023-01-09T11:57:23.931Z,100.30
2023-01-09T12:00:54.292Z,99.80
2023-01-09T12:04:19.568Z,98.40
2023-01-09T12:07:45.392Z,95.10
2023-01-09T12:11:46.079Z,96.70
2023-01-09T12:15:50.188Z,91.40
2023-01-09T12:19:12.931Z,93.50
2023-01-09T12:22:57.230Z,85.00
2023-01-09T12:27:02.313Z,96.50
2023-01-09T12:30:36.729Z,88.70
2023-01-09T12:34:14.697Z,85.60
2023-01-09T12:37:44.270Z,87.20
2023-01-09T12:41:23.204Z,87.10
2023-01-09T12:45:01.383Z,88.10
2023-01-09T12:49:01.042Z,88.80
2023-01-09T12:52:44.960Z,81.80
2023-01-09T12:56:16.422Z,85.50
2023-01-09T12:59:46.125Z,92.80
2023-01-09T13:03:59.366Z,89.40
2023-01-09T13:07:13.182Z,88.60
2023-01-09T13:10:45.751Z,83.40
2023-01-09T13:14:22.370Z,89.80
2023-01-09T13:17:42.228Z,87.80
2023-01-09T13:20:48.072Z,85.10
2023-01-09T13:24:05.367Z,88.60
2023-01-09T13:27:58.794Z,86.00
2023-01-09T13:31:15.318Z,82.80
2023-01-09T13:34:21.784Z,76.30
2023-01-09T13:37:39.969Z,81.90
2023-01-09T13:41:16.439Z,79.20
2023-01-09T13:44:23.258Z,75.30
2023-01-09T13:47:49.168Z,85.50
2023-01-09T13:51:22.784Z,72.10
2023-01-09T13:54:59.929Z,76.80
2023-01-09T13:57:51.653Z,75.90
2023-01-09T14:01:15.233Z,73.50
2023-01-09T14:04:14.873Z,72.40
2023-01-09T14:07:43.176Z,79.40
2023-01-09T14:11:10.104Z,73.00
2023-01-09T14:14:58.200Z,76.50
2023-01-09T14:18:09.151Z,76.50
2023-01-09T14:21:41.184Z,74.20
2023-01-09T14:25:38.170Z,74.80
2023-01-09T14:29:16.158Z,70.50
2023-01-09T14:33:01.816Z,79.40
2023-01-09T14:36:36.458Z,75.40
2023-01-09T14:39:42.871Z,63.50
2023-01-09T14:43:14.047Z,68.40
2023-01-09T14:46:23.259Z,75.80
2023-01-09T14:49:31.011Z,67.30
2023-01-09T14:55:35.940Z,71.10
2023-01-09T14:58:56.298Z,68.50
2023-01-09T15:02:06.479Z,72.20
2023-01-09T15:05:17.238Z,79.50
2023-01-09T15:08:16.835Z,74.40
2023-01-09T15:11:12.465Z,79.30
2023-01-09T15:14:08.821Z,75.90
2023-01-09T15:16:52.574Z,83.60
2023-01-09T15:19:35.916Z,77.40
2023-01-09T15:22:31.198Z,75.10
2023-01-09T15:25:38.903Z,79.70
2023-01-09T15:28:45.053Z,76.00
2023-01-09T15:31:46.931Z,82.20
2023-01-09T15:34:32.955Z,70.60
2023-01-09T15:37:50.354Z,78.80
2023-01-09T15:40:36.607Z,78.00
2023-01-09T15:43:23.372Z,78.60
2023-01-09T15:46:27.143Z,81.50
2023-01-09T15:49:27.550Z,77.50
2023-01-09T15:52:51.607Z,77.80
2023-01-09T15:56:46.363Z,81.90
2023-01-09T16:00:29.056Z,72.90
2023-01-09T16:03:44.111Z,74.60
2023-01-09T16:06:45.219Z,86.40
2023-01-09T16:09:32.627Z,69.40
2023-01-09T16:12:40.402Z,71.70
2023-01-09T16:16:06.555Z,63.80
2023-01-09T16:18:59.250Z,72.90
2023-01-09T16:22:20.479Z,76.20
2023-01-09T16:29:26.509Z,72.90
2023-01-09T16:32:55.830Z,73.80
2023-01-09T16:35:39.254Z,70.90
2023-01-09T16:38:29.231Z,73.30
2023-01-09T16:41:49.754Z,73.00
2023-01-09T16:44:56.990Z,73.00
2023-01-09T16:47:43.300Z,71.50
2023-01-09T16:50:57.707Z,63.90
2023-01-09T16:53:50.224Z,66.20
2023-01-09T16:57:02.159Z,68.00
2023-01-09T17:00:26.485Z,66.20
2023-01-09T17:03:30.809Z,69.30
2023-01-09T17:06:39.182Z,63.90
2023-01-09T17:09:50.031Z,63.70
2023-01-09T17:12:45.989Z,60.70
2023-01-09T17:16:03.939Z,59.00
2023-01-09T17:19:10.857Z,58.70
2023-01-09T17:22:19.590Z,59.20
2023-01-09T17:25:50.310Z,60.90
2023-01-09T17:32:29.610Z,57.10
2023-01-09T17:36:01.180Z,62.30
2023-01-09T17:39:57.906Z,61.10
2023-01-09T17:43:23.447Z,58.50
2023-01-09T17:46:55.846Z,59.00
2023-01-09T17:49:59.290Z,58.50
2023-01-09T17:53:22.645Z,55.80
2023-01-09T17:56:45.114Z,60.30
2023-01-09T17:59:39.579Z,55.90
2023-01-09T18:03:07.624Z,54.80
2023-01-09T18:06:23.086Z,57.00
2023-01-09T18:09:38.356Z,56.90
2023-01-09T18:12:25.452Z,54.30
2023-01-09T18:15:43.668Z,62.70
2023-01-09T18:18:50.657Z,57.40
2023-01-09T18:21:59.125Z,62.60
2023-01-09T18:24:51.396Z,55.50
2023-01-09T18:27:40.225Z,58.40
2023-01-09T18:30:58.022Z,54.40
2023-01-09T18:33:57.635Z,54.80
2023-01-09T18:37:04.384Z,56.60
2023-01-09T18:40:17.304Z,57.80
2023-01-09T18:43:27.528Z,57.40
2023-01-09T18:46:38.659Z,57.20
2023-01-09T18:49:45.830Z,60.40
2023-01-09T18:52:42.291Z,56.30
2023-01-09T18:55:47.990Z,52.30
2023-01-09T18:58:50.041Z,55.20
2023-01-09T19:02:11.367Z,52.00
2023-01-09T19:05:00.223Z,51.70
2023-01-09T19:08:06.743Z,50.60
2023-01-09T19:11:43.129Z,49.90
2023-01-09T19:14:36.521Z,42.80
2023-01-09T19:18:01.287Z,48.30
2023-01-09T19:21:38.446Z,46.20
2023-01-09T19:24:46.941Z,48.90
2023-01-09T19:28:44.896Z,49.50
2023-01-09T19:32:02.156Z,45.40
2023-01-09T19:35:31.242Z,41.70
2023-01-09T19:38:34.315Z,41.50
2023-01-09T19:41:42.230Z,40.70
2023-01-09T19:44:32.779Z,40.60
2023-01-09T19:47:37.600Z,34.20
2023-01-09T19:51:20.303Z,33.30
2023-01-09T19:54:43.856Z,33.30
2023-01-09T19:57:50.691Z,33.60
2023-01-09T20:01:11.784Z,34.90
2023-01-09T20:04:38.687Z,30.90
2023-01-09T20:08:06.247Z,37.80
2023-01-09T20:11:35.912Z,39.30
2023-01-09T20:14:52.955Z,36.70
2023-01-09T20:18:50.541Z,40.40
2023-01-09T20:21:36.937Z,30.80
2023-01-09T20:25:10.509Z,33.50
2023-01-09T20:28:19.800Z,32.90
2023-01-09T20:32:07.654Z,33.00
2023-01-09T20:36:00.336Z,32.30
2023-01-09T20:39:33.371Z,32.80
2023-01-09T20:45:55.472Z,30.40
2023-01-09T20:49:13.063Z,35.20
2023-01-09T20:52:35.088Z,37.10
2023-01-09T20:55:50.521Z,37.40
2023-01-09T20:59:29.804Z,37.80
2023-01-09T21:02:49.373Z,34.00
2023-01-09T21:06:25.578Z,41.20
2023-01-09T21:10:01.970Z,38.10
2023-01-09T21:13:55.801Z,37.20
2023-01-09T21:17:41.943Z,42.60
2023-01-09T21:20:49.554Z,40.70
2023-01-09T21:24:07.529Z,43.90
2023-01-09T21:27:56.027Z,41.90
2023-01-09T21:31:25.698Z,43.20
2023-01-09T21:34:40.242Z,41.40
2023-01-09T21:38:24.100Z,44.40
2023-01-09T21:41:37.378Z,48.60
2023-01-09T21:45:06.806Z,45.90
2023-01-09T21:48:48.689Z,45.00
2023-01-09T21:52:42.767Z,51.20
2023-01-09T21:59:51.009Z,47.70
2023-01-09T22:03:18.918Z,49.20
2023-01-09T22:07:03.106Z,48.10
2023-01-09T22:10:45.891Z,54.30
2023-01-09T22:13:57.590Z,47.40
2023-01-09T22:17:28.299Z,56.00
2023-01-09T22:21:05.569Z,48.30
2023-01-09T22:24:54.630Z,48.40
2023-01-09T22:28:34.600Z,53.40
2023-01-09T22:32:14.200Z,48.00
2023-01-09T22:35:27.273Z,50.10
2023-01-09T22:38:47.327Z,49.70
2023-01-09T22:42:16.434Z,50.70
2023-01-09T22:45:50.520Z,68.80
2023-01-09T22:49:51.892Z,79.40
2023-01-09T22:53:36.538Z,86.30
2023-01-09T22:56:51.372Z,81.30
2023-01-09T23:00:18.190Z,79.80
2023-01-09T23:03:53.422Z,72.70
2023-01-09T23:06:52.218Z,74.50
2023-01-09T23:10:06.459Z,75.60
2023-01-09T23:13:21.379Z,72.00
2023-01-09T23:16:45.907Z,73.00
2023-01-09T23:19:57.115Z,68.00
2023-01-09T23:23:24.654Z,65.30
2023-01-09T23:27:21.570Z,65.90
2023-01-09T23:31:09.515Z,72.10
2023-01-09T23:34:23.570Z,64.00
2023-01-09T23:37:43.915Z,70.80
2023-01-09T23:41:16.989Z,63.10
2023-01-09T23:44:41.175Z,63.80
2023-01-09T23:48:35.370Z,56.90
2023-01-09T23:55:54.775Z,63.00
2023-01-09T23:59:33.675Z,65.70
